Time;durP1;ratioP1;P1;durP2;ratioP2;P2;SDS_P1;SDS_P2;PMS_P1;PMS_P2;Temp;Humidity;BMP_temperature;BMP_pressure;BME280_temperature;BME280_humidity;BME280_pressure;Samples;Min_cycle;Max_cycle;Signal;HPM_P1;HPM_P2
2022/07/12 00:01:32;;;;;;;4.90;1.40;;;;;;;16.57;46.09;95097.44;4175646;28;20362;-53
2022/07/12 00:03:34;;;;;;;4.70;1.42;;;;;;;16.56;46.16;95105.53;4158747;28;20053;-53
2022/07/12 00:05:36;;;;;;;2.88;1.88;;;;;;;16.52;46.31;95105.13;4160667;28;20095;-51
2022/07/12 00:07:38;;;;;;;3.28;1.65;;;;;;;16.48;46.32;95095.09;4166427;28;20139;-50
2022/07/12 00:09:40;;;;;;;4.95;1.77;;;;;;;16.48;46.39;95098.56;4167588;28;20050;-51
2022/07/12 00:11:42;;;;;;;2.67;1.58;;;;;;;16.56;46.27;95095.81;4159611;28;20111;-53
2022/07/12 00:13:43;;;;;;;3.13;1.60;;;;;;;16.57;46.12;95091.31;4159199;28;20094;-51
2022/07/12 00:15:45;;;;;;;5.60;1.75;;;;;;;16.50;46.24;95098.38;4173563;28;20056;-52
2022/07/12 00:17:47;;;;;;;2.38;1.60;;;;;;;16.45;46.48;95098.91;4158035;28;20049;-54
2022/07/12 00:19:49;;;;;;;3.20;1.63;;;;;;;16.40;46.49;95097.84;4168417;28;20056;-53
2022/07/12 00:21:50;;;;;;;3.88;1.65;;;;;;;16.40;46.54;95090.72;4165209;28;20053;-52
2022/07/12 00:23:52;;;;;;;4.95;1.80;;;;;;;16.35;46.47;95096.56;4172559;28;20064;-52
2022/07/12 00:25:54;;;;;;;4.70;1.80;;;;;;;16.42;46.35;95095.84;4175145;28;20409;-51
2022/07/12 00:27:56;;;;;;;4.75;1.58;;;;;;;16.42;46.36;95104.56;4162641;28;20041;-53
2022/07/12 00:29:57;;;;;;;8.27;1.70;;;;;;;16.44;46.34;95101.75;4158275;28;20631;-50
2022/07/12 00:31:59;;;;;;;4.60;1.58;;;;;;;16.36;46.40;95100.84;4165683;28;20053;-50
2022/07/12 00:34:01;;;;;;;2.15;1.50;;;;;;;16.32;46.85;95096.91;4157733;28;20052;-53
2022/07/12 00:36:03;;;;;;;4.93;2.00;;;;;;;16.34;46.74;95096.75;4160696;28;20509;-53
2022/07/12 00:38:05;;;;;;;2.85;1.50;;;;;;;16.31;46.76;95097.94;4161723;28;20041;-53
2022/07/12 00:40:08;;;;;;;4.65;1.60;;;;;;;16.22;46.87;95093.75;4167744;28;20053;-51
2022/07/12 00:42:10;;;;;;;4.28;1.90;;;;;;;16.24;47.03;95097.03;4166490;28;20588;-49
2022/07/12 00:44:12;;;;;;;2.20;1.63;;;;;;;16.24;47.00;95094.41;4175306;28;20087;-52
2022/07/12 00:46:15;;;;;;;2.65;1.55;;;;;;;16.15;47.21;95093.69;4173717;28;20049;-51
2022/07/12 00:48:17;;;;;;;6.13;1.88;;;;;;;16.17;47.32;95089.03;4158220;28;20045;-51
2022/07/12 00:50:22;;;;;;;3.05;1.73;;;;;;;16.17;47.44;95090.84;4165721;28;20076;-51
2022/07/12 00:52:24;;;;;;;2.42;1.45;;;;;;;16.10;47.43;95084.66;4165459;28;20044;-52
2022/07/12 00:54:26;;;;;;;2.67;1.50;;;;;;;16.07;47.57;95080.56;4174694;28;20417;-54
2022/07/12 00:56:27;;;;;;;3.63;1.65;;;;;;;16.08;47.62;95082.19;4170088;28;20478;-53
2022/07/12 00:58:29;;;;;;;4.15;1.80;;;;;;;16.08;47.39;95079.53;4173517;28;20050;-53
2022/07/12 01:00:31;;;;;;;2.67;1.50;;;;;;;15.99;47.44;95077.19;4174968;28;20048;-54
2022/07/12 01:02:34;;;;;;;5.00;1.60;;;;;;;15.99;47.70;95083.28;4163524;28;20502;-51
2022/07/12 01:04:36;;;;;;;3.88;1.40;;;;;;;15.92;47.75;95085.03;4159794;28;20057;-55
2022/07/12 01:06:42;;;;;;;6.70;1.70;;;;;;;15.99;47.76;95079.84;4174647;28;20140;-54
2022/07/12 01:08:44;;;;;;;4.55;1.45;;;;;;;15.99;47.61;95082.47;4170398;28;20072;-50
2022/07/12 01:10:47;;;;;;;2.92;1.60;;;;;;;16.04;47.63;95082.75;4158572;28;20053;-54
2022/07/12 01:12:50;;;;;;;2.83;1.60;;;;;;;15.93;47.83;95079.56;4159028;28;20474;-53
2022/07/12 01:14:53;;;;;;;2.10;1.38;;;;;;;15.94;47.78;95078.56;4172412;28;20056;-54
2022/07/12 01:16:55;;;;;;;5.97;1.60;;;;;;;15.93;47.80;95086.66;4158834;28;20477;-54
2022/07/12 01:18:57;;;;;;;3.47;1.90;;;;;;;16.00;47.72;95084.09;4158453;28;20056;-54
2022/07/12 01:21:04;;;;;;;2.72;1.48;;;;;;;16.06;47.69;95091.31;4180925;28;20193;-53
2022/07/12 01:23:06;;;;;;;4.15;1.75;;;;;;;15.93;47.86;95090.13;4169895;28;20106;-52
2022/07/12 01:25:08;;;;;;;7.70;2.03;;;;;;;15.87;48.09;95088.19;4160532;28;20485;-54
2022/07/12 01:27:11;;;;;;;2.97;1.73;;;;;;;15.89;48.04;95080.91;4172965;28;20475;-51
2022/07/12 01:29:14;;;;;;;3.90;1.55;;;;;;;15.84;48.07;95087.75;4171836;28;20061;-53
2022/07/12 01:31:44;;;;;;;2.35;1.50;;;;;;;15.73;48.38;95089.03;4157254;28;20060;-55
2022/07/12 01:33:46;;;;;;;6.22;1.60;;;;;;;15.75;48.32;95084.38;4160703;28;20136;-53
2022/07/12 01:35:48;;;;;;;3.28;1.52;;;;;;;15.81;48.39;95083.66;4164926;28;20049;-54
2022/07/12 01:37:50;;;;;;;3.95;1.40;;;;;;;15.84;48.10;95085.94;4158724;28;20079;-54
2022/07/12 01:39:56;;;;;;;4.13;1.65;;;;;;;15.84;48.23;95080.66;4171739;28;20115;-51
2022/07/12 01:41:58;;;;;;;3.63;1.65;;;;;;;15.83;48.09;95079.03;4162063;28;20453;-54
2022/07/12 01:44:00;;;;;;;5.05;2.00;;;;;;;15.87;48.00;95079.47;4172325;28;20080;-54
2022/07/12 01:46:02;;;;;;;4.38;1.70;;;;;;;15.87;47.92;95077.63;4158236;28;20108;-52
2022/07/12 01:48:04;;;;;;;2.42;1.50;;;;;;;15.93;47.82;95081.38;4165717;28;20052;-51
2022/07/12 01:50:10;;;;;;;2.55;1.80;;;;;;;15.91;47.93;95075.44;4171417;28;20045;-54
2022/07/12 01:52:12;;;;;;;8.02;1.80;;;;;;;15.94;47.75;95069.81;4158915;28;20057;-53
2022/07/12 01:54:14;;;;;;;6.20;1.67;;;;;;;15.95;47.70;95076.72;4171039;28;20060;-52
2022/07/12 01:56:16;;;;;;;3.80;1.52;;;;;;;15.97;47.75;95075.53;4160382;28;20057;-50
2022/07/12 01:58:18;;;;;;;4.30;1.70;;;;;;;15.88;48.30;95070.56;4164344;28;20045;-53
2022/07/12 02:00:20;;;;;;;2.65;1.55;;;;;;;15.69;48.86;95077.97;4172888;28;20044;-53
2022/07/12 02:02:24;;;;;;;4.53;2.05;;;;;;;15.41;49.90;95080.41;4174493;28;20041;-51
2022/07/12 02:04:26;;;;;;;2.95;1.90;;;;;;;14.83;51.30;95081.88;4161491;28;20077;-52
2022/07/12 02:06:29;;;;;;;3.35;2.10;;;;;;;14.79;51.70;95084.03;4158564;28;20049;-54
2022/07/12 02:08:30;;;;;;;6.50;2.38;;;;;;;14.59;51.82;95083.66;4158889;28;20041;-51
2022/07/12 02:10:32;;;;;;;5.22;2.30;;;;;;;14.33;52.96;95079.50;4167745;28;20048;-53
2022/07/12 02:12:36;;;;;;;5.28;1.80;;;;;;;14.26;53.16;95078.56;4176538;28;20086;-53
2022/07/12 02:14:38;;;;;;;6.15;1.85;;;;;;;14.26;52.97;95080.34;4166948;28;20085;-51
2022/07/12 02:16:40;;;;;;;4.10;1.92;;;;;;;14.36;52.74;95085.41;4174071;28;20165;-54
2022/07/12 02:18:42;;;;;;;4.38;1.95;;;;;;;14.49;52.37;95083.03;4161660;28;20057;-54
2022/07/12 02:20:44;;;;;;;4.18;1.88;;;;;;;14.57;52.21;95083.03;4173531;28;20068;-55
2022/07/12 02:22:46;;;;;;;4.25;2.22;;;;;;;14.71;51.81;95084.06;4164552;28;20065;-50
2022/07/12 02:24:48;;;;;;;3.03;1.90;;;;;;;14.81;51.69;95083.84;4172103;28;20061;-54
2022/07/12 02:26:49;;;;;;;3.80;1.85;;;;;;;14.90;51.33;95088.06;4170457;28;20126;-55
2022/07/12 02:28:51;;;;;;;3.83;1.83;;;;;;;15.00;51.13;95082.56;4177161;28;20056;-52
2022/07/12 02:30:53;;;;;;;4.15;1.90;;;;;;;15.00;51.23;95074.66;4170813;28;20115;-53
2022/07/12 02:32:55;;;;;;;3.55;2.00;;;;;;;15.03;51.04;95077.75;4172649;28;20461;-53
2022/07/12 02:34:56;;;;;;;4.57;1.80;;;;;;;15.00;50.89;95085.22;4162477;28;20045;-53
2022/07/12 02:36:58;;;;;;;6.18;2.25;;;;;;;14.99;51.08;95075.63;4161127;28;20612;-53
2022/07/12 02:39:04;;;;;;;5.85;2.45;;;;;;;15.06;51.01;95084.50;4168848;28;20176;-54
2022/07/12 02:41:06;;;;;;;3.55;2.28;;;;;;;15.05;51.16;95083.66;4175000;28;20404;-53
2022/07/12 02:43:07;;;;;;;2.55;1.98;;;;;;;15.13;51.15;95088.06;4162904;28;20057;-55
2022/07/12 02:45:10;;;;;;;4.75;1.98;;;;;;;15.14;51.16;95090.53;4163699;28;20056;-52
2022/07/12 02:47:11;;;;;;;3.30;2.05;;;;;;;15.19;51.04;95086.56;4160876;28;20050;-52
2022/07/12 02:49:13;;;;;;;4.63;2.08;;;;;;;15.23;51.22;95083.38;4166990;28;20473;-53
2022/07/12 02:51:15;;;;;;;9.07;2.10;;;;;;;15.21;51.39;95084.53;4177778;28;20463;-52
2022/07/12 02:53:17;;;;;;;4.78;2.30;;;;;;;15.09;51.47;95084.97;4165384;28;20135;-52
2022/07/12 02:55:18;;;;;;;5.40;2.00;;;;;;;14.98;51.64;95089.84;4160383;28;20053;-49
2022/07/12 02:57:20;;;;;;;7.40;2.00;;;;;;;14.97;51.71;95096.09;4160508;28;20045;-53
2022/07/12 02:59:22;;;;;;;3.53;2.20;;;;;;;15.01;51.48;95087.66;4161525;28;20049;-51
2022/07/12 03:01:24;;;;;;;9.40;2.13;;;;;;;15.01;51.95;95094.75;4174660;28;20872;-54
2022/07/12 03:03:25;;;;;;;4.20;2.40;;;;;;;15.05;51.99;95099.50;4159464;28;20056;-54
2022/07/12 03:05:27;;;;;;;6.55;2.40;;;;;;;15.11;51.95;95101.44;4166977;28;20080;-53
2022/07/12 03:07:29;;;;;;;3.85;2.00;;;;;;;15.21;51.57;95100.34;4169924;28;20517;-52
2022/07/12 03:09:30;;;;;;;5.47;2.38;;;;;;;15.31;51.33;95103.56;4168030;28;20075;-52
2022/07/12 03:11:33;;;;;;;7.68;2.10;;;;;;;15.25;50.94;95106.94;4170776;28;20205;-51
2022/07/12 03:13:34;;;;;;;7.63;2.10;;;;;;;15.22;51.00;95113.38;4167787;28;20642;-50
2022/07/12 03:15:36;;;;;;;5.97;2.53;;;;;;;15.20;51.31;95109.28;4166760;28;20069;-50
2022/07/12 03:17:38;;;;;;;9.63;2.80;;;;;;;15.24;51.08;95105.31;4167599;28;20044;-52
2022/07/12 03:19:40;;;;;;;5.35;2.08;;;;;;;15.29;50.88;95114.34;4165787;28;20049;-52
2022/07/12 03:21:42;;;;;;;4.75;2.45;;;;;;;15.31;51.45;95109.66;4167659;28;20489;-51
2022/07/12 03:23:44;;;;;;;5.00;2.42;;;;;;;15.33;51.09;95112.97;4171825;28;20422;-55
2022/07/12 03:25:45;;;;;;;4.43;2.38;;;;;;;15.15;51.47;95112.47;4166820;28;20135;-53
2022/07/12 03:27:48;;;;;;;5.25;2.63;;;;;;;14.91;52.24;95116.94;4171253;28;20088;-52
2022/07/12 03:29:50;;;;;;;4.97;2.65;;;;;;;14.79;52.37;95117.50;4161785;28;20115;-52
2022/07/12 03:31:52;;;;;;;4.13;2.40;;;;;;;14.66;53.05;95118.06;4170801;28;20056;-53
2022/07/12 03:33:54;;;;;;;5.43;2.33;;;;;;;14.68;53.31;95114.25;4163930;28;20045;-49
2022/07/12 03:35:55;;;;;;;7.90;3.13;;;;;;;14.54;53.99;95125.53;4173090;28;20302;-51
2022/07/12 03:37:57;;;;;;;5.35;2.95;;;;;;;14.50;53.94;95119.78;4176636;28;20463;-52
2022/07/12 03:39:59;;;;;;;8.65;3.47;;;;;;;14.40;54.32;95119.16;4167106;28;20394;-50
2022/07/12 03:42:00;;;;;;;5.53;3.20;;;;;;;14.31;54.51;95118.38;4171620;28;20053;-49
2022/07/12 03:44:02;;;;;;;7.63;3.38;;;;;;;14.17;54.95;95123.53;4160241;28;20049;-52
2022/07/12 03:46:04;;;;;;;7.80;3.40;;;;;;;14.19;54.76;95125.00;4163189;28;20088;-52
2022/07/12 03:48:06;;;;;;;6.53;3.45;;;;;;;14.21;54.55;95125.66;4160706;28;20049;-50
2022/07/12 03:50:10;;;;;;;5.75;3.67;;;;;;;14.26;54.89;95117.25;4159677;28;20057;-53
2022/07/12 03:52:12;;;;;;;6.45;3.22;;;;;;;14.30;54.52;95122.03;4162291;28;20053;-52
2022/07/12 03:54:14;;;;;;;7.97;3.45;;;;;;;14.43;54.52;95121.47;4159864;28;20126;-51
2022/07/12 03:57:13;;;;;;;5.32;3.17;;;;;;;14.57;54.34;95129.66;4170806;28;20081;-51
2022/07/12 03:58:37;;;;;;;7.70;4.07;;;;;;;14.80;54.08;95125.25;4159084;28;20099;-53
2022/07/12 04:00:42;;;;;;;4.07;2.95;;;;;;;15.04;53.29;95126.91;4172588;28;20045;-53
2022/07/12 04:02:44;;;;;;;5.93;3.70;;;;;;;15.22;52.76;95123.94;4173014;28;20126;-53
2022/07/12 04:04:46;;;;;;;7.85;3.75;;;;;;;15.21;52.14;95134.66;4175363;28;20048;-51
2022/07/12 04:06:48;;;;;;;7.18;3.30;;;;;;;15.01;52.49;95127.22;4166927;28;20049;-51
2022/07/12 04:08:49;;;;;;;8.18;3.08;;;;;;;14.73;53.51;95138.31;4166234;28;20053;-52
2022/07/12 04:10:51;;;;;;;9.63;3.15;;;;;;;14.53;54.11;95135.22;4176643;28;20045;-51
2022/07/12 04:12:53;;;;;;;7.18;3.35;;;;;;;14.39;54.14;95133.34;4168305;28;20103;-52
2022/07/12 04:14:55;;;;;;;6.47;3.67;;;;;;;14.32;54.56;95143.72;4168169;28;20110;-54
2022/07/12 04:16:57;;;;;;;6.85;3.72;;;;;;;14.49;54.35;95141.03;4167986;28;20057;-52
2022/07/12 04:18:59;;;;;;;11.20;4.10;;;;;;;14.52;54.05;95145.97;4166581;28;20095;-55
2022/07/12 04:21:00;;;;;;;8.95;3.72;;;;;;;14.59;53.83;95146.94;4166462;28;20045;-54
2022/07/12 04:23:03;;;;;;;14.68;3.90;;;;;;;14.60;54.18;95150.41;4163633;28;20053;-54
2022/07/12 04:25:06;;;;;;;6.97;3.63;;;;;;;14.70;53.88;95156.28;4161250;28;20068;-53
2022/07/12 04:27:07;;;;;;;8.30;3.93;;;;;;;14.57;53.63;95151.56;4170200;28;20064;-51
2022/07/12 04:29:09;;;;;;;9.50;3.97;;;;;;;14.55;54.39;95156.19;4172556;28;20061;-49
2022/07/12 04:31:11;;;;;;;7.00;3.80;;;;;;;14.77;53.71;95153.78;4166555;28;20053;-54
2022/07/12 04:33:14;;;;;;;7.78;3.70;;;;;;;15.03;53.89;95151.63;4174725;28;20055;-51
2022/07/12 04:35:16;;;;;;;10.10;4.70;;;;;;;15.07;53.25;95152.91;4165439;28;20123;-53
2022/07/12 04:37:18;;;;;;;9.00;4.28;;;;;;;15.00;53.27;95153.81;4164657;28;20084;-53
2022/07/12 04:39:20;;;;;;;11.35;4.50;;;;;;;14.87;53.82;95164.94;4159243;28;20107;-52
2022/07/12 04:41:21;;;;;;;7.05;4.00;;;;;;;14.98;53.97;95158.44;4173403;28;20069;-51
2022/07/12 04:43:24;;;;;;;8.57;3.70;;;;;;;15.10;53.22;95160.50;4168314;28;20049;-53
2022/07/12 04:45:26;;;;;;;11.77;3.95;;;;;;;15.20;53.23;95156.78;4170113;28;20048;-53
2022/07/12 04:47:28;;;;;;;10.13;4.15;;;;;;;15.24;53.31;95160.72;4159931;28;20049;-54
2022/07/12 04:49:32;;;;;;;9.98;4.38;;;;;;;15.32;53.06;95158.84;4172189;28;20053;-53
2022/07/12 04:51:34;;;;;;;9.35;4.43;;;;;;;15.48;52.82;95160.53;4167704;28;20049;-53
2022/07/12 04:53:36;;;;;;;14.05;4.78;;;;;;;15.41;52.43;95169.34;4166192;28;20095;-52
2022/07/12 04:55:37;;;;;;;5.72;3.67;;;;;;;15.27;52.89;95171.75;4171386;28;20123;-53
2022/07/12 04:57:39;;;;;;;8.00;4.22;;;;;;;15.42;52.74;95166.50;4161329;28;20053;-53
2022/07/12 04:59:41;;;;;;;12.40;4.35;;;;;;;15.38;53.28;95161.75;4173398;28;20050;-53
2022/07/12 05:01:42;;;;;;;6.75;3.83;;;;;;;15.33;53.12;95162.28;4168529;28;20425;-53
2022/07/12 05:03:44;;;;;;;9.88;3.83;;;;;;;15.35;52.72;95162.94;4171355;28;20057;-53
2022/07/12 05:05:46;;;;;;;12.10;3.92;;;;;;;15.47;52.58;95164.16;4164798;28;20053;-53
2022/07/12 05:07:47;;;;;;;10.55;4.50;;;;;;;15.65;52.27;95170.94;4160854;28;20049;-53
2022/07/12 05:09:51;;;;;;;14.55;4.07;;;;;;;15.58;52.19;95170.84;4160813;28;20107;-52
2022/07/12 05:11:52;;;;;;;9.30;4.75;;;;;;;15.51;52.66;95164.66;4170368;28;20516;-53
2022/07/12 05:13:54;;;;;;;7.03;3.88;;;;;;;15.59;52.41;95164.56;4163464;28;20080;-57
2022/07/12 05:15:56;;;;;;;12.50;4.60;;;;;;;15.37;53.01;95168.88;4166374;28;20064;-53
2022/07/12 05:17:57;;;;;;;7.72;4.22;;;;;;;15.45;52.82;95166.16;4167475;28;20087;-53
2022/07/12 05:19:59;;;;;;;10.15;4.53;;;;;;;15.54;53.00;95164.28;4162721;28;20057;-51
2022/07/12 05:22:02;;;;;;;10.27;4.35;;;;;;;15.64;52.97;95166.66;4164009;28;20057;-50
2022/07/12 05:24:04;;;;;;;8.02;4.30;;;;;;;15.69;52.81;95170.41;4161159;28;20057;-53
2022/07/12 05:26:06;;;;;;;9.20;4.65;;;;;;;15.81;52.78;95160.28;4158967;28;20057;-55
2022/07/12 05:28:11;;;;;;;9.07;4.32;;;;;;;16.02;52.29;95164.84;4162015;28;20457;-53
2022/07/12 05:30:13;;;;;;;7.47;4.15;;;;;;;16.07;52.11;95159.84;4171880;28;20118;-49
2022/07/12 05:32:14;;;;;;;11.57;4.30;;;;;;;15.88;52.71;95170.94;4167368;28;20107;-51
2022/07/12 05:34:16;;;;;;;8.75;4.47;;;;;;;15.88;53.14;95163.84;4165965;28;20095;-49
2022/07/12 05:36:18;;;;;;;11.48;4.32;;;;;;;16.10;52.93;95171.88;4165874;28;20473;-52
2022/07/12 05:38:20;;;;;;;10.15;4.65;;;;;;;16.04;52.54;95160.19;4172085;28;20048;-51
2022/07/12 05:40:21;;;;;;;12.65;4.43;;;;;;;16.15;52.70;95165.03;4165369;28;20424;-48
2022/07/12 05:42:23;;;;;;;12.82;4.65;;;;;;;16.11;53.07;95165.56;4168722;28;20083;-51
2022/07/12 05:44:25;;;;;;;8.52;4.88;;;;;;;16.32;52.56;95157.72;4168723;28;20541;-53
2022/07/12 05:46:26;;;;;;;11.02;4.55;;;;;;;16.46;52.06;95160.56;4169561;28;20057;-51
2022/07/12 05:48:28;;;;;;;7.90;3.97;;;;;;;16.42;51.84;95154.81;4177031;28;20091;-51
2022/07/12 05:50:30;;;;;;;17.65;4.63;;;;;;;16.61;51.95;95165.84;4176911;28;20060;-52
2022/07/12 05:54:53;;;;;;;9.18;4.13;;;;;;;17.04;50.63;95153.53;4167358;28;20187;-52
2022/07/12 05:56:54;;;;;;;10.90;4.40;;;;;;;17.22;50.38;95160.22;4163541;28;20054;-53
2022/07/12 05:58:56;;;;;;;9.15;4.47;;;;;;;17.37;50.23;95156.50;4169836;28;20041;-53
2022/07/12 06:00:58;;;;;;;8.32;3.72;;;;;;;17.39;49.04;95159.78;4168591;28;20187;-53
2022/07/12 06:02:59;;;;;;;6.75;3.10;;;;;;;17.39;48.08;95157.13;4167812;28;20050;-53
2022/07/12 06:05:01;;;;;;;4.75;2.30;;;;;;;17.36;46.77;95164.66;4168369;28;20049;-52
2022/07/12 06:07:03;;;;;;;5.65;2.20;;;;;;;17.19;46.88;95154.28;4173928;28;20052;-52
2022/07/12 06:09:05;;;;;;;5.00;2.30;;;;;;;17.19;46.35;95156.94;4164833;28;20111;-51
2022/07/12 06:11:07;;;;;;;6.20;1.90;;;;;;;16.93;46.72;95162.78;4167981;28;20049;-52
2022/07/12 06:13:09;;;;;;;4.75;1.95;;;;;;;17.12;46.78;95163.16;4170363;28;20287;-52
2022/07/12 06:15:11;;;;;;;3.28;1.67;;;;;;;17.33;45.90;95159.72;4176901;28;20447;-50
2022/07/12 06:17:13;;;;;;;4.20;1.50;;;;;;;17.49;45.51;95154.16;4169280;28;20453;-51
2022/07/12 06:19:14;;;;;;;7.80;1.83;;;;;;;17.78;45.37;95149.69;4165082;28;20477;-53
2022/07/12 06:21:16;;;;;;;5.28;1.52;;;;;;;17.96;44.64;95150.06;4163798;28;20049;-52
2022/07/12 06:23:18;;;;;;;4.25;2.10;;;;;;;18.18;44.77;95157.97;4176038;28;20056;-54
2022/07/12 06:25:20;;;;;;;4.13;1.77;;;;;;;18.10;44.81;95155.47;4178425;28;20039;-53
2022/07/12 06:27:42;;;;;;;4.05;1.88;;;;;;;18.00;45.06;95150.50;4170861;28;20101;-50
2022/07/12 06:29:47;;;;;;;7.22;2.13;;;;;;;18.06;45.13;95144.41;4178057;28;20049;-49
2022/07/12 06:31:49;;;;;;;7.47;2.05;;;;;;;18.18;45.13;95157.97;4170340;28;20081;-55
2022/07/12 06:33:51;;;;;;;4.78;2.10;;;;;;;18.33;44.77;95156.00;4175281;28;20053;-51
2022/07/12 06:35:53;;;;;;;4.30;2.20;;;;;;;18.42;44.22;95154.00;4161329;28;20119;-50
2022/07/12 06:37:55;;;;;;;4.82;2.22;;;;;;;18.22;44.37;95159.22;4164190;28;20477;-50
2022/07/12 06:39:56;;;;;;;3.90;2.22;;;;;;;18.14;45.05;95156.72;4169492;28;20038;-52
2022/07/12 06:41:58;;;;;;;5.72;2.00;;;;;;;18.31;44.46;95158.03;4173378;28;20111;-51
2022/07/12 06:44:00;;;;;;;5.60;2.65;;;;;;;18.29;45.00;95156.59;4177653;28;20260;-52
2022/07/12 06:46:01;;;;;;;5.43;2.03;;;;;;;18.52;44.65;95148.31;4166725;28;20057;-51
2022/07/12 06:48:04;;;;;;;4.55;2.17;;;;;;;18.41;44.77;95152.34;4172655;28;20103;-51
2022/07/12 06:50:06;;;;;;;7.90;1.63;;;;;;;18.51;44.34;95149.34;4161671;28;20385;-53
2022/07/12 06:52:08;;;;;;;7.38;1.90;;;;;;;18.68;43.88;95137.38;4170959;28;20144;-55
2022/07/12 06:54:10;;;;;;;3.50;1.52;;;;;;;18.90;43.72;95135.44;4163340;28;20107;-50
2022/07/12 06:56:12;;;;;;;2.03;1.42;;;;;;;18.70;43.96;95145.97;4175878;28;20080;-51
2022/07/12 06:58:14;;;;;;;5.60;2.10;;;;;;;18.87;43.79;95140.34;4174363;28;20517;-50
2022/07/12 07:00:15;;;;;;;4.53;1.92;;;;;;;18.92;43.92;95143.22;4171701;28;20041;-45
2022/07/12 07:02:17;;;;;;;5.82;1.90;;;;;;;19.10;43.54;95146.13;4171192;28;20053;-51
2022/07/12 07:04:20;;;;;;;4.75;1.92;;;;;;;19.17;43.34;95140.81;4172199;28;20404;-49
2022/07/12 07:06:21;;;;;;;5.40;1.77;;;;;;;19.24;43.17;95145.13;4171801;28;20052;-55
2022/07/12 07:08:23;;;;;;;5.82;2.13;;;;;;;19.31;43.42;95141.66;4160352;28;20133;-50
2022/07/12 07:10:25;;;;;;;6.55;2.10;;;;;;;18.98;44.37;95150.38;4173600;28;20049;-54
2022/07/12 07:12:27;;;;;;;5.90;2.10;;;;;;;18.73;45.21;95147.41;4177095;28;20122;-51
2022/07/12 07:14:28;;;;;;;8.10;2.13;;;;;;;18.82;45.32;95139.09;4175859;28;20098;-51
2022/07/12 07:16:30;;;;;;;4.78;1.90;;;;;;;19.16;44.57;95141.84;4177456;28;20052;-54
2022/07/12 07:18:33;;;;;;;5.18;2.10;;;;;;;19.30;43.27;95135.53;4170065;28;20057;-52
2022/07/12 07:20:34;;;;;;;4.07;1.60;;;;;;;19.41;42.94;95142.09;4177369;28;20048;-54
2022/07/12 07:22:37;;;;;;;3.83;1.48;;;;;;;19.55;42.89;95140.25;4173065;28;20045;-55
2022/07/12 07:24:39;;;;;;;5.35;1.80;;;;;;;19.78;42.49;95143.34;4176749;28;20057;-53
2022/07/12 07:26:41;;;;;;;7.78;1.90;;;;;;;19.79;41.59;95139.69;4175277;28;20493;-56
2022/07/12 07:31:03;;;;;;;3.78;1.98;;;;;;;19.59;41.66;95142.28;4169579;28;20052;-52
2022/07/12 07:33:05;;;;;;;9.88;2.00;;;;;;;19.52;41.36;95146.78;4169572;28;20053;-54
2022/07/12 07:35:07;;;;;;;5.10;1.70;;;;;;;19.71;41.00;95139.06;4174862;28;20053;-53
2022/07/12 07:37:09;;;;;;;3.88;1.58;;;;;;;19.95;40.59;95135.75;4176589;28;20588;-55
2022/07/12 07:39:12;;;;;;;4.65;1.50;;;;;;;19.96;40.94;95137.41;4170636;28;20048;-54
2022/07/12 07:41:21;;;;;;;3.22;1.45;;;;;;;19.81;39.16;95140.28;4170896;28;20057;-53
2022/07/12 07:43:22;;;;;;;5.13;1.30;;;;;;;20.02;39.46;95128.59;4176564;28;20057;-54
2022/07/12 07:45:24;;;;;;;2.28;1.38;;;;;;;20.18;39.31;95132.66;4161331;28;20102;-54
2022/07/12 07:47:26;;;;;;;2.60;1.25;;;;;;;20.21;39.62;95142.06;4168795;28;20102;-56
2022/07/12 07:49:28;;;;;;;3.55;1.20;;;;;;;20.36;39.03;95128.53;4177293;28;20111;-53
2022/07/12 07:51:29;;;;;;;5.93;1.83;;;;;;;20.60;38.49;95129.69;4160753;28;20111;-55
2022/07/12 07:53:31;;;;;;;4.53;1.20;;;;;;;20.54;38.12;95128.69;4172465;28;20497;-55
2022/07/12 07:55:33;;;;;;;3.67;1.10;;;;;;;20.66;37.29;95124.34;4174629;28;20049;-55
2022/07/12 07:57:34;;;;;;;3.03;1.20;;;;;;;20.60;37.98;95119.84;4160339;28;20057;-56
2022/07/12 07:59:36;;;;;;;6.07;1.63;;;;;;;19.69;39.70;95141.06;4160381;28;20075;-56
2022/07/12 08:01:56;;;;;;;4.18;1.70;;;;;;;19.40;40.65;95135.13;4171835;28;20053;-55
2022/07/12 08:03:58;;;;;;;5.85;1.40;;;;;;;19.39;39.70;95129.00;4158539;28;20060;-55
2022/07/12 08:06:00;;;;;;;5.45;1.85;;;;;;;19.41;40.53;95126.97;4159754;28;20057;-52
2022/07/12 08:08:02;;;;;;;4.68;1.73;;;;;;;19.49;40.69;95135.72;4159169;28;20127;-54
2022/07/12 08:10:04;;;;;;;2.65;1.10;;;;;;;19.71;39.91;95128.44;4164312;28;20083;-56
2022/07/12 08:12:06;;;;;;;10.98;2.10;;;;;;;19.73;38.91;95140.50;4176175;28;20378;-55
2022/07/12 08:14:08;;;;;;;4.20;1.38;;;;;;;20.01;38.60;95121.66;4166615;28;20100;-55
2022/07/12 08:16:10;;;;;;;4.57;0.98;;;;;;;20.32;37.53;95116.66;4160104;28;20453;-55
2022/07/12 08:18:12;;;;;;;2.70;1.50;;;;;;;20.46;37.43;95119.06;4158894;28;20057;-55
2022/07/12 08:20:14;;;;;;;3.92;1.52;;;;;;;20.35;37.04;95117.06;4175935;28;20064;-54
2022/07/12 08:22:43;;;;;;;3.88;1.55;;;;;;;20.30;35.87;95116.84;4175731;28;20562;-56
2022/07/12 08:24:44;;;;;;;4.30;1.30;;;;;;;20.16;36.59;95108.13;4163658;28;20057;-57
2022/07/12 08:26:46;;;;;;;4.55;1.50;;;;;;;20.21;36.59;95113.63;4164215;28;20064;-54
2022/07/12 08:28:48;;;;;;;5.22;1.60;;;;;;;20.15;36.51;95110.97;4175696;28;20119;-54
2022/07/12 08:30:49;;;;;;;3.78;1.30;;;;;;;20.18;36.44;95111.38;4175477;28;20056;-55
2022/07/12 08:32:51;;;;;;;5.15;1.63;;;;;;;20.42;37.59;95109.06;4162081;28;20076;-55
2022/07/12 08:34:53;;;;;;;3.63;1.52;;;;;;;20.62;36.75;95109.00;4159144;28;20104;-53
2022/07/12 08:36:54;;;;;;;4.22;1.52;;;;;;;20.94;36.05;95106.41;4163286;28;20599;-54
2022/07/12 08:38:56;;;;;;;2.83;1.17;;;;;;;21.22;35.61;95103.34;4176135;28;20528;-54
2022/07/12 08:40:58;;;;;;;4.05;1.52;;;;;;;21.55;35.52;95100.47;4165988;28;20465;-54
2022/07/12 08:43:00;;;;;;;4.53;1.17;;;;;;;21.69;34.62;95103.84;4159732;28;20370;-53
2022/07/12 08:45:02;;;;;;;4.72;1.15;;;;;;;21.56;35.23;95112.78;4159009;28;20052;-54
2022/07/12 08:47:04;;;;;;;4.45;1.40;;;;;;;20.99;35.84;95106.56;4166924;28;20559;-55
2022/07/12 08:49:09;;;;;;;2.88;1.48;;;;;;;20.82;35.94;95106.25;4163740;28;20211;-53
2022/07/12 08:51:12;;;;;;;3.50;1.20;;;;;;;20.45;33.77;95100.66;4158687;28;20057;-53
2022/07/12 08:53:14;;;;;;;3.63;1.17;;;;;;;20.05;34.80;95093.63;4160867;28;20108;-53
2022/07/12 08:55:28;;;;;;;5.32;1.08;;;;;;;20.04;35.44;95089.31;4169953;28;20069;-54
2022/07/12 08:57:30;;;;;;;8.30;1.15;;;;;;;19.86;34.73;95091.81;4158869;28;20505;-54
2022/07/12 08:59:32;;;;;;;2.65;1.10;;;;;;;19.79;35.43;95085.69;4169528;28;20106;-53
2022/07/12 09:01:41;;;;;;;8.23;1.33;;;;;;;20.23;34.53;95084.16;4175262;28;20130;-49
2022/07/12 09:03:43;;;;;;;5.65;1.67;;;;;;;20.45;35.36;95085.50;4174623;28;20059;-54
2022/07/12 09:05:53;;;;;;;3.20;1.33;;;;;;;20.53;34.74;95089.78;4174004;28;20048;-53
2022/07/12 09:08:08;;;;;;;4.63;1.20;;;;;;;20.66;33.39;95091.59;4174688;28;20495;-52
2022/07/12 09:10:12;;;;;;;5.53;0.88;;;;;;;20.76;31.57;95089.28;4164742;28;20099;-54
2022/07/12 09:12:23;;;;;;;3.05;1.00;;;;;;;21.13;32.83;95086.81;4167281;28;20315;-50
2022/07/12 09:14:26;;;;;;;5.10;1.20;;;;;;;20.71;34.13;95094.41;4159366;28;20057;-55
2022/07/12 09:16:28;;;;;;;5.43;1.10;;;;;;;21.00;32.91;95086.91;4157123;28;20054;-52
2022/07/12 09:18:30;;;;;;;2.40;0.98;;;;;;;21.33;32.74;95081.34;4168557;28;20283;-55
2022/07/12 09:20:36;;;;;;;3.72;1.02;;;;;;;21.63;32.84;95076.19;4162450;28;20049;-53
2022/07/12 09:22:37;;;;;;;4.80;1.38;;;;;;;21.51;32.14;95080.63;4171982;28;20057;-53
2022/07/12 09:24:39;;;;;;;7.75;1.23;;;;;;;21.42;31.92;95081.91;4165791;28;20068;-51
2022/07/12 09:26:41;;;;;;;9.80;1.10;;;;;;;21.22;30.96;95082.03;4166230;28;20125;-48
2022/07/12 09:28:43;;;;;;;4.05;1.33;;;;;;;20.84;32.44;95081.06;4178163;28;20060;-51
2022/07/12 09:30:49;;;;;;;2.78;1.10;;;;;;;20.58;32.65;95089.16;4169054;28;20057;-51
2022/07/12 09:37:40;;;;;;;5.88;1.50;;;;;;;21.00;33.53;95076.25;4178488;28;20127;-50
2022/07/12 09:39:43;;;;;;;4.32;1.00;;;;;;;21.43;33.02;95064.91;4174560;28;20109;-54
2022/07/12 09:41:45;;;;;;;3.58;1.10;;;;;;;21.79;32.31;95068.66;4165308;28;20049;-50
2022/07/12 09:43:47;;;;;;;3.08;1.30;;;;;;;21.89;32.81;95087.66;4173085;28;20049;-53
2022/07/12 09:45:49;;;;;;;5.13;2.13;;;;;;;21.15;31.96;95090.09;4173376;28;20628;-52